sensor_id;sensor_type;location;lat;lon;timestamp;pressure;altitude;pressure_sealevel;temperature;humidity
7832;BME280;3961;42.058;25.586;2023-05-25T00:01:33;63898.84;;;14.86;100.00
7832;BME280;3961;42.058;25.586;2023-05-25T00:04:02;63937.75;;;15.20;100.00
7832;BME280;3961;42.058;25.586;2023-05-25T00:06:29;63921.13;;;15.07;100.00
7832;BME280;3961;42.058;25.586;2023-05-25T00:08:55;63948.75;;;15.29;100.00
7832;BME280;3961;42.058;25.586;2023-05-25T00:11:25;63933.91;;;15.19;100.00
7832;BME280;3961;42.058;25.586;2023-05-25T00:13:51;63942.25;;;15.28;100.00
7832;BME280;3961;42.058;25.586;2023-05-25T00:16:16;63947.59;;;15.28;100.00
7832;BME280;3961;42.058;25.586;2023-05-25T00:18:42;63938.56;;;15.23;100.00
7832;BME280;3961;42.058;25.586;2023-05-25T00:21:08;63919.75;;;15.04;100.00
7832;BME280;3961;42.058;25.586;2023-05-25T00:23:34;63900.25;;;14.89;100.00
7832;BME280;3961;42.058;25.586;2023-05-25T00:26:01;63908.94;;;14.97;100.00
7832;BME280;3961;42.058;25.586;2023-05-25T00:28:27;63867.63;;;14.65;100.00
7832;BME280;3961;42.058;25.586;2023-05-25T00:30:52;63861.38;;;14.55;100.00
7832;BME280;3961;42.058;25.586;2023-05-25T00:33:18;63845.00;;;14.45;100.00
7832;BME280;3961;42.058;25.586;2023-05-25T00:35:44;63855.00;;;14.50;100.00
7832;BME280;3961;42.058;25.586;2023-05-25T00:38:15;63855.56;;;14.50;100.00
7832;BME280;3961;42.058;25.586;2023-05-25T00:40:41;63880.84;;;14.70;100.00
7832;BME280;3961;42.058;25.586;2023-05-25T00:43:08;63848.69;;;14.39;100.00
7832;BME280;3961;42.058;25.586;2023-05-25T00:45:33;63862.88;;;14.54;100.00
7832;BME280;3961;42.058;25.586;2023-05-25T00:47:59;63895.03;;;14.85;100.00
7832;BME280;3961;42.058;25.586;2023-05-25T00:50:43;63879.69;;;14.69;100.00
7832;BME280;3961;42.058;25.586;2023-05-25T00:53:11;63877.59;;;14.69;100.00
7832;BME280;3961;42.058;25.586;2023-05-25T00:55:45;63874.94;;;14.69;100.00
7832;BME280;3961;42.058;25.586;2023-05-25T00:58:12;63864.84;;;14.58;100.00
7832;BME280;3961;42.058;25.586;2023-05-25T01:00:42;63845.94;;;14.44;100.00
7832;BME280;3961;42.058;25.586;2023-05-25T01:03:14;63864.28;;;14.58;100.00
7832;BME280;3961;42.058;25.586;2023-05-25T01:05:44;63841.28;;;14.40;100.00
7832;BME280;3961;42.058;25.586;2023-05-25T01:08:13;63863.94;;;14.60;100.00
7832;BME280;3961;42.058;25.586;2023-05-25T01:10:39;63868.69;;;14.59;100.00
7832;BME280;3961;42.058;25.586;2023-05-25T01:13:08;63879.00;;;14.73;100.00
7832;BME280;3961;42.058;25.586;2023-05-25T01:15:34;63876.44;;;14.68;100.00
7832;BME280;3961;42.058;25.586;2023-05-25T01:18:01;63867.28;;;14.56;100.00
7832;BME280;3961;42.058;25.586;2023-05-25T01:20:28;63882.59;;;14.71;100.00
7832;BME280;3961;42.058;25.586;2023-05-25T01:23:11;63892.94;;;14.85;100.00
7832;BME280;3961;42.058;25.586;2023-05-25T01:25:42;63864.84;;;14.58;100.00
7832;BME280;3961;42.058;25.586;2023-05-25T01:28:29;63852.44;;;14.45;100.00
7832;BME280;3961;42.058;25.586;2023-05-25T01:30:55;63871.81;;;14.64;100.00
7832;BME280;3961;42.058;25.586;2023-05-25T01:33:22;63868.91;;;14.62;100.00
7832;BME280;3961;42.058;25.586;2023-05-25T01:35:48;63888.28;;;14.81;100.00
7832;BME280;3961;42.058;25.586;2023-05-25T01:38:15;63867.75;;;14.61;100.00
7832;BME280;3961;42.058;25.586;2023-05-25T01:40:43;63890.72;;;14.78;100.00
7832;BME280;3961;42.058;25.586;2023-05-25T01:43:08;63883.66;;;14.77;100.00
7832;BME280;3961;42.058;25.586;2023-05-25T01:45:34;63885.97;;;14.79;100.00
7832;BME280;3961;42.058;25.586;2023-05-25T01:48:24;63870.28;;;14.65;100.00
7832;BME280;3961;42.058;25.586;2023-05-25T01:51:10;63879.69;;;14.69;100.00
7832;BME280;3961;42.058;25.586;2023-05-25T01:53:45;63848.84;;;14.47;100.00
7832;BME280;3961;42.058;25.586;2023-05-25T01:56:13;63853.81;;;14.49;100.00
7832;BME280;3961;42.058;25.586;2023-05-25T01:58:44;63865.44;;;14.59;100.00
7832;BME280;3961;42.058;25.586;2023-05-25T02:01:13;63863.69;;;14.57;100.00
7832;BME280;3961;42.058;25.586;2023-05-25T02:03:42;63867.75;;;14.61;100.00
7832;BME280;3961;42.058;25.586;2023-05-25T02:06:09;63814.59;;;14.17;100.00
7832;BME280;3961;42.058;25.586;2023-05-25T02:08:34;63825.75;;;14.22;100.00
7832;BME280;3961;42.058;25.586;2023-05-25T02:11:00;63848.59;;;14.44;100.00
7832;BME280;3961;42.058;25.586;2023-05-25T02:13:26;63845.13;;;14.41;100.00
7832;BME280;3961;42.058;25.586;2023-05-25T02:15:51;63841.63;;;14.38;100.00
7832;BME280;3961;42.058;25.586;2023-05-25T02:18:17;63855.91;;;14.48;100.00
7832;BME280;3961;42.058;25.586;2023-05-25T02:20:43;63859.97;;;14.52;100.00
7832;BME280;3961;42.058;25.586;2023-05-25T02:23:09;63834.66;;;14.32;100.00
7832;BME280;3961;42.058;25.586;2023-05-25T02:25:35;63830.97;;;14.26;100.00
7832;BME280;3961;42.058;25.586;2023-05-25T02:28:00;63813.22;;;14.13;100.00
7832;BME280;3961;42.058;25.586;2023-05-25T02:30:26;63820.06;;;14.24;100.00
7832;BME280;3961;42.058;25.586;2023-05-25T02:32:51;63810.31;;;14.10;100.00
7832;BME280;3961;42.058;25.586;2023-05-25T02:35:18;63836.16;;;14.31;100.00
7832;BME280;3961;42.058;25.586;2023-05-25T02:37:44;63841.03;;;14.37;100.00
7832;BME280;3961;42.058;25.586;2023-05-25T02:40:10;63808.22;;;14.11;100.00
7832;BME280;3961;42.058;25.586;2023-05-25T02:42:36;63805.31;;;14.08;100.00
7832;BME280;3961;42.058;25.586;2023-05-25T02:45:03;63831.19;;;14.29;100.00
7832;BME280;3961;42.058;25.586;2023-05-25T02:47:30;63864.38;;;14.53;100.00
7832;BME280;3961;42.058;25.586;2023-05-25T02:49:56;63859.41;;;14.51;100.00
7832;BME280;3961;42.058;25.586;2023-05-25T02:52:21;63839.28;;;14.36;100.00
7832;BME280;3961;42.058;25.586;2023-05-25T02:54:47;63833.50;;;14.31;100.00
7832;BME280;3961;42.058;25.586;2023-05-25T02:57:12;63825.97;;;14.24;100.00
7832;BME280;3961;42.058;25.586;2023-05-25T02:59:38;63835.00;;;14.30;100.00
7832;BME280;3961;42.058;25.586;2023-05-25T03:02:03;63835.47;;;14.35;100.00
7832;BME280;3961;42.058;25.586;2023-05-25T03:04:29;63825.75;;;14.22;100.00
7832;BME280;3961;42.058;25.586;2023-05-25T03:06:58;63836.16;;;14.31;100.00
7832;BME280;3961;42.058;25.586;2023-05-25T03:09:24;63855.91;;;14.48;100.00
7832;BME280;3961;42.058;25.586;2023-05-25T03:11:49;63859.97;;;14.52;100.00
7832;BME280;3961;42.058;25.586;2023-05-25T03:14:15;63862.78;;;14.59;100.00
7832;BME280;3961;42.058;25.586;2023-05-25T03:16:40;63882.25;;;14.73;100.00
7832;BME280;3961;42.058;25.586;2023-05-25T03:19:06;63882.25;;;14.73;100.00
7832;BME280;3961;42.058;25.586;2023-05-25T03:21:31;63883.75;;;14.72;100.00
7832;BME280;3961;42.058;25.586;2023-05-25T03:23:57;63884.00;;;14.75;100.00
7832;BME280;3961;42.058;25.586;2023-05-25T03:26:24;63899.31;;;14.91;100.00
7832;BME280;3961;42.058;25.586;2023-05-25T03:28:51;63932.16;;;15.17;100.00
7832;BME280;3961;42.058;25.586;2023-05-25T03:31:17;63928.34;;;15.16;100.00
7832;BME280;3961;42.058;25.586;2023-05-25T03:33:42;63940.28;;;15.24;100.00
7832;BME280;3961;42.058;25.586;2023-05-25T03:36:09;63955.03;;;15.39;100.00
7832;BME280;3961;42.058;25.586;2023-05-25T03:38:37;63983.84;;;15.62;100.00
7832;BME280;3961;42.058;25.586;2023-05-25T03:41:03;64017.31;;;15.89;100.00
7832;BME280;3961;42.058;25.586;2023-05-25T03:43:29;64071.59;;;16.39;100.00
7832;BME280;3961;42.058;25.586;2023-05-25T03:45:55;64209.22;;;17.57;100.00
7832;BME280;3961;42.058;25.586;2023-05-25T03:48:20;64364.19;;;18.92;100.00
7832;BME280;3961;42.058;25.586;2023-05-25T03:50:46;64530.69;;;20.39;100.00
7832;BME280;3961;42.058;25.586;2023-05-25T03:53:11;64663.06;;;21.52;100.00
7832;BME280;3961;42.058;25.586;2023-05-25T03:55:37;64618.25;;;21.15;100.00
7832;BME280;3961;42.058;25.586;2023-05-25T03:58:02;64787.84;;;22.62;96.31
7832;BME280;3961;42.058;25.586;2023-05-25T04:00:28;64769.13;;;22.46;96.38
7832;BME280;3961;42.058;25.586;2023-05-25T04:02:53;64854.38;;;23.18;94.64
7832;BME280;3961;42.058;25.586;2023-05-25T04:05:19;64810.81;;;22.77;94.51
7832;BME280;3961;42.058;25.586;2023-05-25T04:07:44;64959.44;;;24.11;90.11
7832;BME280;3961;42.058;25.586;2023-05-25T04:10:10;64933.31;;;23.91;89.23
7832;BME280;3961;42.058;25.586;2023-05-25T04:12:36;64973.28;;;24.21;88.04
7832;BME280;3961;42.058;25.586;2023-05-25T04:15:03;64991.09;;;24.38;85.41
7832;BME280;3961;42.058;25.586;2023-05-25T04:17:29;65021.03;;;24.64;84.77
7832;BME280;3961;42.058;25.586;2023-05-25T04:19:55;65049.53;;;24.87;83.56
7832;BME280;3961;42.058;25.586;2023-05-25T04:22:21;64934.63;;;23.87;85.00
7832;BME280;3961;42.058;25.586;2023-05-25T04:24:47;64878.59;;;23.41;88.13
7832;BME280;3961;42.058;25.586;2023-05-25T04:27:12;64825.84;;;22.88;90.74
7832;BME280;3961;42.058;25.586;2023-05-25T04:29:39;64754.53;;;22.33;93.37
7832;BME280;3961;42.058;25.586;2023-05-25T04:32:05;64719.19;;;22.00;95.58
7832;BME280;3961;42.058;25.586;2023-05-25T04:34:33;64662.25;;;21.49;97.58
7832;BME280;3961;42.058;25.586;2023-05-25T04:37:00;64670.81;;;21.54;98.43
7832;BME280;3961;42.058;25.586;2023-05-25T04:39:30;64671.25;;;21.59;98.13
7832;BME280;3961;42.058;25.586;2023-05-25T04:41:56;64629.50;;;21.20;99.60
7832;BME280;3961;42.058;25.586;2023-05-25T04:44:21;64606.97;;;21.03;100.00
7832;BME280;3961;42.058;25.586;2023-05-25T04:46:48;64525.19;;;20.32;100.00
7832;BME280;3961;42.058;25.586;2023-05-25T04:49:14;64520.38;;;20.32;100.00
7832;BME280;3961;42.058;25.586;2023-05-25T04:51:41;64536.53;;;20.44;100.00
7832;BME280;3961;42.058;25.586;2023-05-25T04:54:06;64517.81;;;20.28;100.00
7832;BME280;3961;42.058;25.586;2023-05-25T04:56:31;64552.28;;;20.58;100.00
7832;BME280;3961;42.058;25.586;2023-05-25T04:58:57;64555.19;;;20.60;100.00
7832;BME280;3961;42.058;25.586;2023-05-25T05:01:22;64512.56;;;20.23;100.00
7832;BME280;3961;42.058;25.586;2023-05-25T05:03:48;64611.41;;;21.04;100.00
7832;BME280;3961;42.058;25.586;2023-05-25T05:06:13;64715.91;;;22.00;97.07
7832;BME280;3961;42.058;25.586;2023-05-25T05:08:39;64789.75;;;22.59;93.28
7832;BME280;3961;42.058;25.586;2023-05-25T05:11:05;64878.59;;;23.41;90.19
7832;BME280;3961;42.058;25.586;2023-05-25T05:13:31;64807.97;;;22.82;93.06
7832;BME280;3961;42.058;25.586;2023-05-25T05:15:56;64780.97;;;22.52;93.71
7832;BME280;3961;42.058;25.586;2023-05-25T05:18:22;64738.84;;;22.15;95.11
7832;BME280;3961;42.058;25.586;2023-05-25T05:20:48;64854.38;;;23.18;91.43
7832;BME280;3961;42.058;25.586;2023-05-25T05:23:13;64951.25;;;24.04;88.38
7832;BME280;3961;42.058;25.586;2023-05-25T05:25:39;65115.81;;;25.44;82.52
7832;BME280;3961;42.058;25.586;2023-05-25T05:28:04;65243.50;;;26.57;79.43
7832;BME280;3961;42.058;25.586;2023-05-25T05:30:30;65201.19;;;26.20;78.35
7832;BME280;3961;42.058;25.586;2023-05-25T05:32:55;65229.75;;;26.42;77.78
7832;BME280;3961;42.058;25.586;2023-05-25T05:35:21;65253.84;;;26.63;77.27
7832;BME280;3961;42.058;25.586;2023-05-25T05:37:47;65179.25;;;25.99;78.05
7832;BME280;3961;42.058;25.586;2023-05-25T05:40:12;65109.38;;;25.38;80.15
7832;BME280;3961;42.058;25.586;2023-05-25T05:42:38;65052.81;;;24.87;82.71
7832;BME280;3961;42.058;25.586;2023-05-25T05:45:04;65122.13;;;25.54;79.53
7832;BME280;3961;42.058;25.586;2023-05-25T05:47:30;65161.84;;;25.86;79.01
7832;BME280;3961;42.058;25.586;2023-05-25T05:49:55;65086.88;;;25.17;80.99
7832;BME280;3961;42.058;25.586;2023-05-25T05:52:21;65058.91;;;24.95;82.79
7832;BME280;3961;42.058;25.586;2023-05-25T05:54:46;65007.69;;;24.48;84.90
7832;BME280;3961;42.058;25.586;2023-05-25T05:57:12;64959.81;;;24.09;86.88
7832;BME280;3961;42.058;25.586;2023-05-25T05:59:37;64905.56;;;23.64;87.65
7832;BME280;3961;42.058;25.586;2023-05-25T06:02:03;64913.78;;;23.71;89.59
7832;BME280;3961;42.058;25.586;2023-05-25T06:04:29;64885.41;;;23.44;91.65
7832;BME280;3961;42.058;25.586;2023-05-25T06:06:54;64893.47;;;23.56;91.29
7832;BME280;3961;42.058;25.586;2023-05-25T06:09:20;64921.59;;;23.81;91.04
7832;BME280;3961;42.058;25.586;2023-05-25T06:11:46;64986.38;;;24.27;89.89
7832;BME280;3961;42.058;25.586;2023-05-25T06:14:11;64955.34;;;24.07;90.20
7832;BME280;3961;42.058;25.586;2023-05-25T06:16:37;64990.53;;;24.38;88.64
7832;BME280;3961;42.058;25.586;2023-05-25T06:19:02;64968.03;;;24.16;90.63
7832;BME280;3961;42.058;25.586;2023-05-25T06:21:28;64964.28;;;24.10;91.40
7832;BME280;3961;42.058;25.586;2023-05-25T06:23:53;64925.63;;;23.77;91.85
7832;BME280;3961;42.058;25.586;2023-05-25T06:26:19;64994.03;;;24.41;89.89
7832;BME280;3961;42.058;25.586;2023-05-25T06:28:45;65039.91;;;24.76;89.20
7832;BME280;3961;42.058;25.586;2023-05-25T06:31:11;65013.53;;;24.53;91.14
7832;BME280;3961;42.058;25.586;2023-05-25T06:33:37;65010.59;;;24.51;90.94
7832;BME280;3961;42.058;25.586;2023-05-25T06:36:03;65048.34;;;24.86;90.06
7832;BME280;3961;42.058;25.586;2023-05-25T06:38:28;65082.16;;;25.13;87.87
7832;BME280;3961;42.058;25.586;2023-05-25T06:40:54;65080.03;;;25.13;87.12
7832;BME280;3961;42.058;25.586;2023-05-25T06:43:20;65093.31;;;25.22;87.09
7832;BME280;3961;42.058;25.586;2023-05-25T06:45:45;65109.00;;;25.40;86.59
7832;BME280;3961;42.058;25.586;2023-05-25T06:48:11;65061.13;;;25.01;88.00
7832;BME280;3961;42.058;25.586;2023-05-25T06:50:36;65062.81;;;24.96;89.11
7832;BME280;3961;42.058;25.586;2023-05-25T06:53:02;65099.41;;;25.30;88.80
7832;BME280;3961;42.058;25.586;2023-05-25T06:55:28;65146.56;;;25.73;87.99
7832;BME280;3961;42.058;25.586;2023-05-25T06:57:53;65117.22;;;25.48;88.29
7832;BME280;3961;42.058;25.586;2023-05-25T07:00:19;65132.25;;;25.58;86.38
7832;BME280;3961;42.058;25.586;2023-05-25T07:02:45;65149.28;;;25.73;85.83
7832;BME280;3961;42.058;25.586;2023-05-25T07:05:11;65210.72;;;26.24;85.26
7832;BME280;3961;42.058;25.586;2023-05-25T07:07:36;65255.59;;;26.65;83.70
7832;BME280;3961;42.058;25.586;2023-05-25T07:10:02;65174.75;;;25.97;85.33
7832;BME280;3961;42.058;25.586;2023-05-25T07:12:28;65197.22;;;26.12;85.50
7832;BME280;3961;42.058;25.586;2023-05-25T07:14:55;65232.09;;;26.44;84.35
7832;BME280;3961;42.058;25.586;2023-05-25T07:17:21;65257.78;;;26.71;84.18
7832;BME280;3961;42.058;25.586;2023-05-25T07:19:47;65249.72;;;26.60;83.93
7832;BME280;3961;42.058;25.586;2023-05-25T07:22:14;65287.34;;;26.92;83.62
7832;BME280;3961;42.058;25.586;2023-05-25T07:24:46;65290.88;;;26.95;83.68
7832;BME280;3961;42.058;25.586;2023-05-25T07:27:12;65327.31;;;27.27;82.92
7832;BME280;3961;42.058;25.586;2023-05-25T07:29:38;65356.13;;;27.52;82.23
7832;BME280;3961;42.058;25.586;2023-05-25T07:32:04;65290.13;;;26.99;83.97
7832;BME280;3961;42.058;25.586;2023-05-25T07:34:32;65281.81;;;26.85;82.94
7832;BME280;3961;42.058;25.586;2023-05-25T07:36:58;65307.53;;;27.12;81.46
7832;BME280;3961;42.058;25.586;2023-05-25T07:39:24;65344.50;;;27.37;80.87
7832;BME280;3961;42.058;25.586;2023-05-25T07:41:50;65298.72;;;27.04;82.06
7832;BME280;3961;42.058;25.586;2023-05-25T07:44:15;65367.88;;;27.62;82.12
7832;BME280;3961;42.058;25.586;2023-05-25T07:46:42;65374.38;;;27.67;81.45
7832;BME280;3961;42.058;25.586;2023-05-25T07:49:07;65392.59;;;27.83;80.38
7832;BME280;3961;42.058;25.586;2023-05-25T07:51:38;65440.06;;;28.22;76.43
7832;BME280;3961;42.058;25.586;2023-05-25T07:54:03;65391.84;;;27.87;77.08
7832;BME280;3961;42.058;25.586;2023-05-25T07:56:29;65370.44;;;27.59;76.49
7832;BME280;3961;42.058;25.586;2023-05-25T07:58:54;65388.28;;;27.77;78.05
7832;BME280;3961;42.058;25.586;2023-05-25T08:01:21;65362.59;;;27.57;74.88
7832;BME280;3961;42.058;25.586;2023-05-25T08:03:47;65398.13;;;27.90;76.75
7832;BME280;3961;42.058;25.586;2023-05-25T08:06:13;65444.38;;;28.28;76.48
7832;BME280;3961;42.058;25.586;2023-05-25T08:08:39;65424.94;;;28.11;74.39
7832;BME280;3961;42.058;25.586;2023-05-25T08:11:06;65436.97;;;28.24;75.32
7832;BME280;3961;42.058;25.586;2023-05-25T08:13:31;65432.81;;;28.20;74.65
7832;BME280;3961;42.058;25.586;2023-05-25T08:15:57;65490.06;;;28.65;74.30
7832;BME280;3961;42.058;25.586;2023-05-25T08:18:25;65509.16;;;28.84;72.67
7832;BME280;3961;42.058;25.586;2023-05-25T08:20:51;65586.31;;;29.50;71.89
7832;BME280;3961;42.058;25.586;2023-05-25T08:23:16;65546.84;;;29.16;71.85
7832;BME280;3961;42.058;25.586;2023-05-25T08:25:43;65545.44;;;29.13;73.45
7832;BME280;3961;42.058;25.586;2023-05-25T08:28:08;65447.91;;;28.31;70.32
7832;BME280;3961;42.058;25.586;2023-05-25T08:30:33;65405.53;;;27.94;74.29
7832;BME280;3961;42.058;25.586;2023-05-25T08:32:59;65444.59;;;28.30;74.21
7832;BME280;3961;42.058;25.586;2023-05-25T08:35:25;65506.78;;;28.82;73.33
7832;BME280;3961;42.058;25.586;2023-05-25T08:37:50;65573.91;;;29.39;71.65
7832;BME280;3961;42.058;25.586;2023-05-25T08:40:17;65549.78;;;29.19;69.75
7832;BME280;3961;42.058;25.586;2023-05-25T08:42:44;65581.00;;;29.46;71.06
7832;BME280;3961;42.058;25.586;2023-05-25T08:45:11;65508.31;;;28.81;71.49
7832;BME280;3961;42.058;25.586;2023-05-25T08:47:41;65434.97;;;28.20;71.74
7832;BME280;3961;42.058;25.586;2023-05-25T08:50:08;65414.94;;;28.02;70.29
7832;BME280;3961;42.058;25.586;2023-05-25T08:52:35;65420.63;;;28.05;71.39
7832;BME280;3961;42.058;25.586;2023-05-25T08:55:04;65429.88;;;28.18;71.18
7832;BME280;3961;42.058;25.586;2023-05-25T09:00:22;65487.13;;;28.62;73.10
7832;BME280;3961;42.058;25.586;2023-05-25T09:02:57;65543.88;;;29.14;71.16
7832;BME280;3961;42.058;25.586;2023-05-25T09:05:24;65515.78;;;28.85;70.08
7832;BME280;3961;42.058;25.586;2023-05-25T09:07:50;65547.44;;;29.17;69.74
7832;BME280;3961;42.058;25.586;2023-05-25T09:10:19;65532.69;;;29.04;69.96
7832;BME280;3961;42.058;25.586;2023-05-25T09:12:45;65540.13;;;29.08;67.72
7832;BME280;3961;42.058;25.586;2023-05-25T09:15:11;65466.38;;;28.49;66.56
7832;BME280;3961;42.058;25.586;2023-05-25T09:17:37;65529.75;;;29.01;68.01
7832;BME280;3961;42.058;25.586;2023-05-25T09:20:04;65490.28;;;28.67;67.67
7832;BME280;3961;42.058;25.586;2023-05-25T09:22:29;65481.44;;;28.60;67.45
7832;BME280;3961;42.058;25.586;2023-05-25T09:24:55;65537.78;;;29.06;68.03
7832;BME280;3961;42.058;25.586;2023-05-25T09:27:22;65547.00;;;29.12;67.47
7832;BME280;3961;42.058;25.586;2023-05-25T09:29:51;65474.63;;;28.56;66.62
7832;BME280;3961;42.058;25.586;2023-05-25T09:32:17;65412.38;;;27.98;68.01
7832;BME280;3961;42.058;25.586;2023-05-25T09:34:43;65419.66;;;28.06;68.51
7832;BME280;3961;42.058;25.586;2023-05-25T09:37:11;65365.16;;;27.62;67.79
7832;BME280;3961;42.058;25.586;2023-05-25T09:39:39;65451.66;;;28.36;67.44
7832;BME280;3961;42.058;25.586;2023-05-25T09:42:05;65514.06;;;28.90;62.85
7832;BME280;3961;42.058;25.586;2023-05-25T09:44:31;65547.03;;;29.19;64.15
7832;BME280;3961;42.058;25.586;2023-05-25T09:46:57;65497.94;;;28.74;63.44
7832;BME280;3961;42.058;25.586;2023-05-25T09:49:22;65428.84;;;28.12;63.93
7832;BME280;3961;42.058;25.586;2023-05-25T09:51:48;65389.06;;;27.80;65.19
7832;BME280;3961;42.058;25.586;2023-05-25T09:54:13;65405.53;;;27.94;65.82
7832;BME280;3961;42.058;25.586;2023-05-25T09:56:40;65322.41;;;27.20;66.85
7832;BME280;3961;42.058;25.586;2023-05-25T09:59:06;65331.63;;;27.33;66.26
7832;BME280;3961;42.058;25.586;2023-05-25T10:01:32;65420.63;;;28.05;66.08
7832;BME280;3961;42.058;25.586;2023-05-25T10:03:57;65452.63;;;28.35;64.76
7832;BME280;3961;42.058;25.586;2023-05-25T10:06:26;65483.03;;;28.59;63.12
7832;BME280;3961;42.058;25.586;2023-05-25T10:08:54;65494.41;;;28.71;62.87
7832;BME280;3961;42.058;25.586;2023-05-25T10:11:21;65507.00;;;28.84;61.11
7832;BME280;3961;42.058;25.586;2023-05-25T10:13:47;65535.63;;;29.06;61.94
7832;BME280;3961;42.058;25.586;2023-05-25T10:16:15;65446.72;;;28.30;62.02
7832;BME280;3961;42.058;25.586;2023-05-25T10:18:47;65383.41;;;27.77;63.41
7832;BME280;3961;42.058;25.586;2023-05-25T10:21:15;65400.25;;;27.90;64.53
7832;BME280;3961;42.058;25.586;2023-05-25T10:23:46;65337.50;;;27.38;64.30
7832;BME280;3961;42.058;25.586;2023-05-25T10:26:15;65343.19;;;27.40;64.43
7832;BME280;3961;42.058;25.586;2023-05-25T10:28:43;65333.78;;;27.32;66.14
7832;BME280;3961;42.058;25.586;2023-05-25T10:31:11;65295.34;;;26.97;67.42
7832;BME280;3961;42.058;25.586;2023-05-25T10:33:38;65297.13;;;26.98;66.35
7832;BME280;3961;42.058;25.586;2023-05-25T10:36:05;65277.34;;;26.84;65.33
7832;BME280;3961;42.058;25.586;2023-05-25T10:38:31;65261.25;;;26.67;64.25
7832;BME280;3961;42.058;25.586;2023-05-25T10:40:58;65322.25;;;27.25;62.98
7832;BME280;3961;42.058;25.586;2023-05-25T10:43:25;65362.00;;;27.57;61.83
7832;BME280;3961;42.058;25.586;2023-05-25T10:45:51;65433.06;;;28.23;61.92
7832;BME280;3961;42.058;25.586;2023-05-25T10:48:17;65447.91;;;28.31;62.24
7832;BME280;3961;42.058;25.586;2023-05-25T10:50:49;65489.47;;;28.64;60.95
7832;BME280;3961;42.058;25.586;2023-05-25T10:53:15;65513.28;;;28.87;60.14
7832;BME280;3961;42.058;25.586;2023-05-25T10:58:20;65408.25;;;27.94;62.17
7832;BME280;3961;42.058;25.586;2023-05-25T11:01:04;65356.72;;;27.52;64.79
7832;BME280;3961;42.058;25.586;2023-05-25T11:06:22;65359.06;;;27.54;64.76
7832;BME280;3961;42.058;25.586;2023-05-25T11:08:55;65298.66;;;26.97;65.78
7832;BME280;3961;42.058;25.586;2023-05-25T11:14:39;65221.91;;;26.33;67.46
7832;BME280;3961;42.058;25.586;2023-05-25T11:17:12;65206.25;;;26.22;68.87
7832;BME280;3961;42.058;25.586;2023-05-25T11:24:42;65257.34;;;26.66;65.88
7832;BME280;3961;42.058;25.586;2023-05-25T11:27:11;65359.44;;;27.52;65.20
7832;BME280;3961;42.058;25.586;2023-05-25T11:29:37;65378.47;;;27.71;62.18
7832;BME280;3961;42.058;25.586;2023-05-25T11:32:04;65427.69;;;28.11;64.32
7832;BME280;3961;42.058;25.586;2023-05-25T11:34:35;65449.69;;;28.32;62.35
7832;BME280;3961;42.058;25.586;2023-05-25T11:37:01;65467.34;;;28.48;63.69
7832;BME280;3961;42.058;25.586;2023-05-25T11:39:28;65442.78;;;28.22;61.02
7832;BME280;3961;42.058;25.586;2023-05-25T11:41:55;65438.88;;;28.21;65.11
7832;BME280;3961;42.058;25.586;2023-05-25T11:44:29;65407.28;;;27.96;68.66
7832;BME280;3961;42.058;25.586;2023-05-25T11:46:56;65387.53;;;27.81;68.84
7832;BME280;3961;42.058;25.586;2023-05-25T11:49:23;65357.31;;;27.53;69.08
7832;BME280;3961;42.058;25.586;2023-05-25T11:51:50;65356.13;;;27.52;68.79
7832;BME280;3961;42.058;25.586;2023-05-25T11:54:28;65342.97;;;27.38;69.47
7832;BME280;3961;42.058;25.586;2023-05-25T11:56:55;65325.34;;;27.23;70.80
7832;BME280;3961;42.058;25.586;2023-05-25T11:59:26;65332.78;;;27.27;71.52
7832;BME280;3961;42.058;25.586;2023-05-25T12:02:10;65319.31;;;27.22;70.92
7832;BME280;3961;42.058;25.586;2023-05-25T12:04:36;65312.63;;;27.14;73.98
7832;BME280;3961;42.058;25.586;2023-05-25T12:07:03;65310.63;;;27.10;75.75
7832;BME280;3961;42.058;25.586;2023-05-25T12:09:29;65290.06;;;26.92;76.13
7832;BME280;3961;42.058;25.586;2023-05-25T12:11:56;65291.81;;;26.94;76.92
7832;BME280;3961;42.058;25.586;2023-05-25T12:14:22;65274.19;;;26.78;77.00
7832;BME280;3961;42.058;25.586;2023-05-25T12:16:49;65254.44;;;26.64;77.67
7832;BME280;3961;42.058;25.586;2023-05-25T12:19:15;65266.38;;;26.76;76.18
7832;BME280;3961;42.058;25.586;2023-05-25T12:21:42;65259.69;;;26.68;76.54
7832;BME280;3961;42.058;25.586;2023-05-25T12:24:09;65249.53;;;26.57;76.94
7832;BME280;3961;42.058;25.586;2023-05-25T12:26:49;65152.81;;;25.76;78.17
7832;BME280;3961;42.058;25.586;2023-05-25T12:29:15;65216.03;;;26.28;81.38
7832;BME280;3961;42.058;25.586;2023-05-25T12:31:41;65171.03;;;25.92;79.47
7832;BME280;3961;42.058;25.586;2023-05-25T12:34:14;65152.22;;;25.75;78.43
7832;BME280;3961;42.058;25.586;2023-05-25T12:36:54;65153.78;;;25.74;78.42
7832;BME280;3961;42.058;25.586;2023-05-25T12:42:00;65078.88;;;25.12;78.23
7832;BME280;3961;42.058;25.586;2023-05-25T12:44:28;65072.19;;;25.04;79.53
7832;BME280;3961;42.058;25.586;2023-05-25T12:47:18;65067.31;;;24.97;79.06
7832;BME280;3961;42.058;25.586;2023-05-25T12:49:46;65012.38;;;24.52;79.14
7832;BME280;3961;42.058;25.586;2023-05-25T12:52:32;64936.16;;;23.86;80.60
7832;BME280;3961;42.058;25.586;2023-05-25T12:54:58;64916.84;;;23.69;78.21
7832;BME280;3961;42.058;25.586;2023-05-25T12:57:33;64878.16;;;23.36;79.58
7832;BME280;3961;42.058;25.586;2023-05-25T13:00:00;64789.41;;;22.61;88.78
7832;BME280;3961;42.058;25.586;2023-05-25T13:02:25;64643.19;;;21.34;100.00
7832;BME280;3961;42.058;25.586;2023-05-25T13:04:51;64578.13;;;20.75;100.00
7832;BME280;3961;42.058;25.586;2023-05-25T13:07:16;64598.41;;;20.98;100.00
7832;BME280;3961;42.058;25.586;2023-05-25T13:09:42;64629.75;;;21.23;100.00
7832;BME280;3961;42.058;25.586;2023-05-25T13:12:08;64636.53;;;21.26;100.00
7832;BME280;3961;42.058;25.586;2023-05-25T13:14:34;64623.88;;;21.18;100.00
7832;BME280;3961;42.058;25.586;2023-05-25T13:17:00;64630.34;;;21.23;100.00
7832;BME280;3961;42.058;25.586;2023-05-25T13:19:25;64608.13;;;21.04;100.00
7832;BME280;3961;42.058;25.586;2023-05-25T13:21:51;64610.69;;;21.08;100.00
7832;BME280;3961;42.058;25.586;2023-05-25T13:24:18;64616.31;;;21.11;100.00
7832;BME280;3961;42.058;25.586;2023-05-25T13:26:44;64628.94;;;21.20;100.00